sensor_id;sensor_type;location;lat;lon;timestamp;pressure;altitude;pressure_sealevel;temperature
48894;BMP280;34710;35.798;139.446;2023-01-05T00:01:37;101294.80;;;19.19
48894;BMP280;34710;35.798;139.446;2023-01-05T00:04:07;101296.06;;;18.61
48894;BMP280;34710;35.798;139.446;2023-01-05T00:06:37;101296.22;;;18.46
48894;BMP280;34710;35.798;139.446;2023-01-05T00:09:07;101306.54;;;18.68
48894;BMP280;34710;35.798;139.446;2023-01-05T00:11:38;101304.90;;;17.23
48894;BMP280;34710;35.798;139.446;2023-01-05T00:14:12;101303.00;;;17.41
48894;BMP280;34710;35.798;139.446;2023-01-05T00:16:43;101299.24;;;16.71
48894;BMP280;34710;35.798;139.446;2023-01-05T00:19:13;101295.36;;;16.73
48894;BMP280;34710;35.798;139.446;2023-01-05T00:21:43;101293.49;;;17.00
48894;BMP280;34710;35.798;139.446;2023-01-05T00:24:12;101290.00;;;17.28
48894;BMP280;34710;35.798;139.446;2023-01-05T00:26:41;101287.82;;;17.31
48894;BMP280;34710;35.798;139.446;2023-01-05T00:29:09;101292.42;;;17.17
48894;BMP280;34710;35.798;139.446;2023-01-05T00:31:39;101293.20;;;17.78
48894;BMP280;34710;35.798;139.446;2023-01-05T00:34:08;101295.00;;;17.12
48894;BMP280;34710;35.798;139.446;2023-01-05T00:36:40;101297.39;;;18.15
48894;BMP280;34710;35.798;139.446;2023-01-05T00:39:09;101303.43;;;18.47
48894;BMP280;34710;35.798;139.446;2023-01-05T00:41:39;101306.32;;;18.63
48894;BMP280;34710;35.798;139.446;2023-01-05T00:44:09;101306.84;;;19.18
48894;BMP280;34710;35.798;139.446;2023-01-05T00:46:38;101296.03;;;19.54
48894;BMP280;34710;35.798;139.446;2023-01-05T00:49:07;101290.56;;;19.96
48894;BMP280;34710;35.798;139.446;2023-01-05T00:51:36;101290.05;;;20.62
48894;BMP280;34710;35.798;139.446;2023-01-05T00:54:05;101290.12;;;20.46
48894;BMP280;34710;35.798;139.446;2023-01-05T00:56:34;101293.32;;;20.95
48894;BMP280;34710;35.798;139.446;2023-01-05T00:59:04;101288.39;;;21.68
48894;BMP280;34710;35.798;139.446;2023-01-05T01:01:32;101292.67;;;22.58
48894;BMP280;34710;35.798;139.446;2023-01-05T01:04:02;101287.00;;;23.15
48894;BMP280;34710;35.798;139.446;2023-01-05T01:06:31;101284.83;;;22.94
48894;BMP280;34710;35.798;139.446;2023-01-05T01:09:00;101286.17;;;22.48
48894;BMP280;34710;35.798;139.446;2023-01-05T01:11:30;101279.08;;;22.61
48894;BMP280;34710;35.798;139.446;2023-01-05T01:13:59;101274.15;;;23.55
48894;BMP280;34710;35.798;139.446;2023-01-05T01:16:29;101268.35;;;24.03
48894;BMP280;34710;35.798;139.446;2023-01-05T01:18:58;101270.40;;;23.40
48894;BMP280;34710;35.798;139.446;2023-01-05T01:21:28;101262.98;;;23.89
48894;BMP280;34710;35.798;139.446;2023-01-05T01:23:57;101261.28;;;24.41
48894;BMP280;34710;35.798;139.446;2023-01-05T01:26:27;101260.89;;;24.52
48894;BMP280;34710;35.798;139.446;2023-01-05T01:28:57;101260.25;;;25.05
48894;BMP280;34710;35.798;139.446;2023-01-05T01:31:27;101254.19;;;24.95
48894;BMP280;34710;35.798;139.446;2023-01-05T01:33:56;101248.94;;;24.44
48894;BMP280;34710;35.798;139.446;2023-01-05T01:36:26;101246.44;;;24.85
48894;BMP280;34710;35.798;139.446;2023-01-05T01:38:58;101236.19;;;25.17
48894;BMP280;34710;35.798;139.446;2023-01-05T01:41:27;101232.80;;;25.13
48894;BMP280;34710;35.798;139.446;2023-01-05T01:43:58;101225.41;;;24.47
48894;BMP280;34710;35.798;139.446;2023-01-05T01:46:28;101227.34;;;24.85
48894;BMP280;34710;35.798;139.446;2023-01-05T01:48:59;101216.39;;;23.89
48894;BMP280;34710;35.798;139.446;2023-01-05T01:51:33;101210.39;;;23.68
48894;BMP280;34710;35.798;139.446;2023-01-05T01:54:06;101196.54;;;24.51
48894;BMP280;34710;35.798;139.446;2023-01-05T01:56:40;101190.63;;;25.22
48894;BMP280;34710;35.798;139.446;2023-01-05T01:59:11;101185.10;;;25.34
48894;BMP280;34710;35.798;139.446;2023-01-05T02:01:41;101178.17;;;25.67
48894;BMP280;34710;35.798;139.446;2023-01-05T02:04:11;101178.72;;;23.94
48894;BMP280;34710;35.798;139.446;2023-01-05T02:06:41;101166.11;;;24.92
48894;BMP280;34710;35.798;139.446;2023-01-05T02:09:10;101161.53;;;25.22
48894;BMP280;34710;35.798;139.446;2023-01-05T02:11:48;101150.38;;;25.52
48894;BMP280;34710;35.798;139.446;2023-01-05T02:14:29;101148.56;;;25.27
48894;BMP280;34710;35.798;139.446;2023-01-05T02:17:10;101141.33;;;24.74
48894;BMP280;34710;35.798;139.446;2023-01-05T02:20:14;101139.72;;;24.36
48894;BMP280;34710;35.798;139.446;2023-01-05T02:24:02;101131.83;;;25.58
48894;BMP280;34710;35.798;139.446;2023-01-05T02:26:55;101131.66;;;24.11
48894;BMP280;34710;35.798;139.446;2023-01-05T02:29:46;101119.28;;;24.25
48894;BMP280;34710;35.798;139.446;2023-01-05T02:32:21;101105.13;;;23.29
48894;BMP280;34710;35.798;139.446;2023-01-05T02:34:59;101097.58;;;23.72
48894;BMP280;34710;35.798;139.446;2023-01-05T02:37:34;101103.12;;;23.21
48894;BMP280;34710;35.798;139.446;2023-01-05T02:40:12;101101.87;;;23.13
48894;BMP280;34710;35.798;139.446;2023-01-05T02:42:44;101096.43;;;22.59
48894;BMP280;34710;35.798;139.446;2023-01-05T02:45:15;101097.04;;;22.52
48894;BMP280;34710;35.798;139.446;2023-01-05T02:47:48;101094.17;;;22.08
48894;BMP280;34710;35.798;139.446;2023-01-05T02:50:20;101091.78;;;22.76
48894;BMP280;34710;35.798;139.446;2023-01-05T02:52:57;101087.84;;;23.29
48894;BMP280;34710;35.798;139.446;2023-01-05T02:55:31;101069.98;;;23.19
48894;BMP280;34710;35.798;139.446;2023-01-05T02:58:06;101066.68;;;23.50
48894;BMP280;34710;35.798;139.446;2023-01-05T03:00:40;101060.01;;;24.56
48894;BMP280;34710;35.798;139.446;2023-01-05T03:03:14;101054.08;;;25.13
48894;BMP280;34710;35.798;139.446;2023-01-05T03:05:51;101052.37;;;25.19
48894;BMP280;34710;35.798;139.446;2023-01-05T03:08:24;101049.14;;;24.99
48894;BMP280;34710;35.798;139.446;2023-01-05T03:11:01;101042.00;;;25.31
48894;BMP280;34710;35.798;139.446;2023-01-05T03:13:31;101045.67;;;25.11
48894;BMP280;34710;35.798;139.446;2023-01-05T03:16:05;101042.25;;;25.87
48894;BMP280;34710;35.798;139.446;2023-01-05T03:18:36;101045.13;;;25.41
48894;BMP280;34710;35.798;139.446;2023-01-05T03:21:08;101045.28;;;24.99
48894;BMP280;34710;35.798;139.446;2023-01-05T03:23:39;101026.82;;;25.02
48894;BMP280;34710;35.798;139.446;2023-01-05T03:26:10;101026.73;;;25.48
48894;BMP280;34710;35.798;139.446;2023-01-05T03:28:43;101021.29;;;25.37
48894;BMP280;34710;35.798;139.446;2023-01-05T03:31:19;101020.25;;;25.41
48894;BMP280;34710;35.798;139.446;2023-01-05T03:33:56;101022.73;;;25.76
48894;BMP280;34710;35.798;139.446;2023-01-05T03:36:29;101015.72;;;25.41
48894;BMP280;34710;35.798;139.446;2023-01-05T03:39:02;101008.24;;;24.90
48894;BMP280;34710;35.798;139.446;2023-01-05T03:41:32;101004.51;;;23.74
48894;BMP280;34710;35.798;139.446;2023-01-05T03:44:03;100999.63;;;24.51
48894;BMP280;34710;35.798;139.446;2023-01-05T03:46:33;100988.12;;;24.14
48894;BMP280;34710;35.798;139.446;2023-01-05T03:49:05;100986.79;;;23.94
48894;BMP280;34710;35.798;139.446;2023-01-05T03:51:34;100981.07;;;23.20
48894;BMP280;34710;35.798;139.446;2023-01-05T03:54:04;100978.80;;;23.23
48894;BMP280;34710;35.798;139.446;2023-01-05T03:56:34;100977.65;;;23.40
48894;BMP280;34710;35.798;139.446;2023-01-05T03:59:06;100976.03;;;23.79
48894;BMP280;34710;35.798;139.446;2023-01-05T04:01:39;100969.12;;;23.75
48894;BMP280;34710;35.798;139.446;2023-01-05T04:04:10;100970.85;;;22.59
48894;BMP280;34710;35.798;139.446;2023-01-05T04:06:40;100976.15;;;21.75
48894;BMP280;34710;35.798;139.446;2023-01-05T04:09:09;100967.98;;;22.99
48894;BMP280;34710;35.798;139.446;2023-01-05T04:11:39;100968.43;;;22.81
48894;BMP280;34710;35.798;139.446;2023-01-05T04:14:10;100971.28;;;23.51
48894;BMP280;34710;35.798;139.446;2023-01-05T04:16:40;100968.78;;;23.21
48894;BMP280;34710;35.798;139.446;2023-01-05T04:19:11;100965.56;;;23.43
48894;BMP280;34710;35.798;139.446;2023-01-05T04:21:40;100956.09;;;23.07
48894;BMP280;34710;35.798;139.446;2023-01-05T04:24:16;100960.86;;;23.52
48894;BMP280;34710;35.798;139.446;2023-01-05T04:26:45;100954.87;;;22.50
48894;BMP280;34710;35.798;139.446;2023-01-05T04:29:15;100963.81;;;22.61
48894;BMP280;34710;35.798;139.446;2023-01-05T04:31:44;100958.30;;;22.40
48894;BMP280;34710;35.798;139.446;2023-01-05T04:34:14;100959.10;;;20.76
48894;BMP280;34710;35.798;139.446;2023-01-05T04:36:43;100955.06;;;20.40
48894;BMP280;34710;35.798;139.446;2023-01-05T04:39:13;100959.94;;;20.04
48894;BMP280;34710;35.798;139.446;2023-01-05T04:41:43;100957.56;;;18.82
48894;BMP280;34710;35.798;139.446;2023-01-05T04:44:12;100960.77;;;18.18
48894;BMP280;34710;35.798;139.446;2023-01-05T04:46:43;100968.05;;;17.78
48894;BMP280;34710;35.798;139.446;2023-01-05T04:49:12;100963.66;;;18.18
48894;BMP280;34710;35.798;139.446;2023-01-05T04:51:49;100952.51;;;18.58
48894;BMP280;34710;35.798;139.446;2023-01-05T04:54:18;100957.58;;;19.25
48894;BMP280;34710;35.798;139.446;2023-01-05T04:56:48;100960.04;;;18.39
48894;BMP280;34710;35.798;139.446;2023-01-05T04:59:17;100963.55;;;18.07
48894;BMP280;34710;35.798;139.446;2023-01-05T05:01:47;100971.40;;;17.70
48894;BMP280;34710;35.798;139.446;2023-01-05T05:04:16;100973.14;;;17.34
48894;BMP280;34710;35.798;139.446;2023-01-05T05:06:46;100979.31;;;16.46
48894;BMP280;34710;35.798;139.446;2023-01-05T05:09:15;100977.96;;;15.81
48894;BMP280;34710;35.798;139.446;2023-01-05T05:11:45;100984.18;;;15.74
48894;BMP280;34710;35.798;139.446;2023-01-05T05:14:14;100978.17;;;15.79
48894;BMP280;34710;35.798;139.446;2023-01-05T05:16:44;100975.44;;;15.55
48894;BMP280;34710;35.798;139.446;2023-01-05T05:19:13;100983.54;;;15.15
48894;BMP280;34710;35.798;139.446;2023-01-05T05:21:43;100980.27;;;15.42
48894;BMP280;34710;35.798;139.446;2023-01-05T05:24:13;100983.92;;;15.52
48894;BMP280;34710;35.798;139.446;2023-01-05T05:26:42;100983.34;;;15.49
48894;BMP280;34710;35.798;139.446;2023-01-05T05:29:11;100995.89;;;14.85
48894;BMP280;34710;35.798;139.446;2023-01-05T05:31:41;100995.38;;;15.09
48894;BMP280;34710;35.798;139.446;2023-01-05T05:34:10;100993.26;;;15.43
48894;BMP280;34710;35.798;139.446;2023-01-05T05:36:39;100994.25;;;15.22
48894;BMP280;34710;35.798;139.446;2023-01-05T05:39:10;100992.85;;;15.06
48894;BMP280;34710;35.798;139.446;2023-01-05T05:41:39;100993.99;;;15.07
48894;BMP280;34710;35.798;139.446;2023-01-05T05:44:09;100996.60;;;15.20
48894;BMP280;34710;35.798;139.446;2023-01-05T05:46:38;101001.80;;;14.90
48894;BMP280;34710;35.798;139.446;2023-01-05T05:49:08;101011.24;;;13.94
48894;BMP280;34710;35.798;139.446;2023-01-05T05:51:37;101009.03;;;14.83
48894;BMP280;34710;35.798;139.446;2023-01-05T05:54:07;101019.79;;;14.92
48894;BMP280;34710;35.798;139.446;2023-01-05T05:56:36;101018.24;;;14.54
48894;BMP280;34710;35.798;139.446;2023-01-05T05:59:05;101032.88;;;14.53
48894;BMP280;34710;35.798;139.446;2023-01-05T06:01:35;101033.95;;;14.90
48894;BMP280;34710;35.798;139.446;2023-01-05T06:04:04;101030.26;;;14.49
48894;BMP280;34710;35.798;139.446;2023-01-05T06:06:33;101030.86;;;14.42
48894;BMP280;34710;35.798;139.446;2023-01-05T06:09:03;101035.44;;;14.05
48894;BMP280;34710;35.798;139.446;2023-01-05T06:11:32;101035.48;;;14.45
48894;BMP280;34710;35.798;139.446;2023-01-05T06:14:02;101039.27;;;14.25
48894;BMP280;34710;35.798;139.446;2023-01-05T06:16:32;101038.94;;;14.43
48894;BMP280;34710;35.798;139.446;2023-01-05T06:19:01;101043.06;;;14.46
48894;BMP280;34710;35.798;139.446;2023-01-05T06:21:31;101047.42;;;14.46
48894;BMP280;34710;35.798;139.446;2023-01-05T06:24:00;101051.79;;;14.53
48894;BMP280;34710;35.798;139.446;2023-01-05T06:26:29;101058.26;;;14.54
48894;BMP280;34710;35.798;139.446;2023-01-05T06:28:58;101057.09;;;14.18
48894;BMP280;34710;35.798;139.446;2023-01-05T06:31:28;101063.87;;;13.99
48894;BMP280;34710;35.798;139.446;2023-01-05T06:33:58;101061.05;;;14.13
48894;BMP280;34710;35.798;139.446;2023-01-05T06:36:26;101059.33;;;14.26
48894;BMP280;34710;35.798;139.446;2023-01-05T06:38:55;101064.71;;;14.49
48894;BMP280;34710;35.798;139.446;2023-01-05T06:41:24;101064.41;;;14.28
48894;BMP280;34710;35.798;139.446;2023-01-05T06:43:53;101068.08;;;13.95
48894;BMP280;34710;35.798;139.446;2023-01-05T06:46:22;101068.91;;;13.78
48894;BMP280;34710;35.798;139.446;2023-01-05T06:48:51;101074.01;;;13.73
48894;BMP280;34710;35.798;139.446;2023-01-05T06:51:20;101073.37;;;14.04
48894;BMP280;34710;35.798;139.446;2023-01-05T06:53:49;101071.13;;;13.77
48894;BMP280;34710;35.798;139.446;2023-01-05T06:56:18;101068.04;;;13.65
48894;BMP280;34710;35.798;139.446;2023-01-05T06:58:47;101068.96;;;13.47
48894;BMP280;34710;35.798;139.446;2023-01-05T07:01:17;101078.42;;;12.83
48894;BMP280;34710;35.798;139.446;2023-01-05T07:03:46;101081.49;;;12.10
48894;BMP280;34710;35.798;139.446;2023-01-05T07:06:15;101087.03;;;11.99
48894;BMP280;34710;35.798;139.446;2023-01-05T07:08:44;101093.03;;;11.66
48894;BMP280;34710;35.798;139.446;2023-01-05T07:11:13;101093.46;;;11.70
48894;BMP280;34710;35.798;139.446;2023-01-05T07:13:46;101097.49;;;12.09
48894;BMP280;34710;35.798;139.446;2023-01-05T07:16:16;101101.29;;;11.95
48894;BMP280;34710;35.798;139.446;2023-01-05T07:18:45;101106.28;;;11.59
48894;BMP280;34710;35.798;139.446;2023-01-05T07:21:14;101102.87;;;11.70
48894;BMP280;34710;35.798;139.446;2023-01-05T07:23:42;101104.77;;;12.06
48894;BMP280;34710;35.798;139.446;2023-01-05T07:26:11;101104.19;;;12.19
48894;BMP280;34710;35.798;139.446;2023-01-05T07:28:41;101106.91;;;11.67
48894;BMP280;34710;35.798;139.446;2023-01-05T07:31:11;101110.38;;;11.80
48894;BMP280;34710;35.798;139.446;2023-01-05T07:33:39;101109.43;;;11.75
48894;BMP280;34710;35.798;139.446;2023-01-05T07:36:08;101108.38;;;11.16
48894;BMP280;34710;35.798;139.446;2023-01-05T07:38:38;101116.53;;;11.14
48894;BMP280;34710;35.798;139.446;2023-01-05T07:41:06;101111.52;;;10.96
48894;BMP280;34710;35.798;139.446;2023-01-05T07:43:36;101115.46;;;10.25
48894;BMP280;34710;35.798;139.446;2023-01-05T07:46:05;101117.98;;;10.72
48894;BMP280;34710;35.798;139.446;2023-01-05T07:48:35;101125.49;;;10.61
48894;BMP280;34710;35.798;139.446;2023-01-05T07:51:05;101128.58;;;11.00
48894;BMP280;34710;35.798;139.446;2023-01-05T07:53:36;101128.93;;;11.12
48894;BMP280;34710;35.798;139.446;2023-01-05T07:56:06;101131.76;;;10.25
48894;BMP280;34710;35.798;139.446;2023-01-05T07:58:35;101138.02;;;10.26
48894;BMP280;34710;35.798;139.446;2023-01-05T08:01:06;101144.40;;;9.82
48894;BMP280;34710;35.798;139.446;2023-01-05T08:03:36;101151.32;;;10.04
48894;BMP280;34710;35.798;139.446;2023-01-05T08:06:07;101152.95;;;10.26
48894;BMP280;34710;35.798;139.446;2023-01-05T08:08:36;101156.15;;;10.41
48894;BMP280;34710;35.798;139.446;2023-01-05T08:11:07;101159.41;;;10.34
48894;BMP280;34710;35.798;139.446;2023-01-05T08:13:36;101159.84;;;10.33
48894;BMP280;34710;35.798;139.446;2023-01-05T08:16:06;101155.61;;;10.27
48894;BMP280;34710;35.798;139.446;2023-01-05T08:18:36;101152.60;;;10.36
48894;BMP280;34710;35.798;139.446;2023-01-05T08:21:06;101154.81;;;10.37
48894;BMP280;34710;35.798;139.446;2023-01-05T08:23:36;101155.07;;;9.74
48894;BMP280;34710;35.798;139.446;2023-01-05T08:26:07;101157.40;;;10.60
48894;BMP280;34710;35.798;139.446;2023-01-05T08:28:37;101156.92;;;10.76
48894;BMP280;34710;35.798;139.446;2023-01-05T08:31:09;101158.59;;;10.61
48894;BMP280;34710;35.798;139.446;2023-01-05T08:33:39;101154.91;;;10.86
48894;BMP280;34710;35.798;139.446;2023-01-05T08:36:10;101160.69;;;10.84
48894;BMP280;34710;35.798;139.446;2023-01-05T08:38:40;101165.81;;;10.70
48894;BMP280;34710;35.798;139.446;2023-01-05T08:41:09;101174.55;;;10.41
48894;BMP280;34710;35.798;139.446;2023-01-05T08:43:38;101177.82;;;10.02
48894;BMP280;34710;35.798;139.446;2023-01-05T08:46:08;101178.10;;;10.23
48894;BMP280;34710;35.798;139.446;2023-01-05T08:48:37;101183.19;;;10.22
48894;BMP280;34710;35.798;139.446;2023-01-05T08:51:06;101186.29;;;10.25
48894;BMP280;34710;35.798;139.446;2023-01-05T08:53:36;101189.43;;;10.30
48894;BMP280;34710;35.798;139.446;2023-01-05T08:56:05;101196.84;;;10.09
48894;BMP280;34710;35.798;139.446;2023-01-05T08:58:34;101200.45;;;9.93
48894;BMP280;34710;35.798;139.446;2023-01-05T09:01:06;101206.64;;;10.25
48894;BMP280;34710;35.798;139.446;2023-01-05T09:03:36;101208.19;;;10.27
48894;BMP280;34710;35.798;139.446;2023-01-05T09:06:08;101207.53;;;10.20
48894;BMP280;34710;35.798;139.446;2023-01-05T09:08:38;101214.30;;;10.27
48894;BMP280;34710;35.798;139.446;2023-01-05T09:11:09;101221.06;;;10.09
48894;BMP280;34710;35.798;139.446;2023-01-05T09:13:40;101212.35;;;10.04
48894;BMP280;34710;35.798;139.446;2023-01-05T09:16:12;101219.97;;;10.09
48894;BMP280;34710;35.798;139.446;2023-01-05T09:18:42;101221.24;;;10.07
48894;BMP280;34710;35.798;139.446;2023-01-05T09:21:12;101216.55;;;9.88
48894;BMP280;34710;35.798;139.446;2023-01-05T09:23:41;101218.92;;;9.74
48894;BMP280;34710;35.798;139.446;2023-01-05T09:26:13;101215.29;;;9.79
48894;BMP280;34710;35.798;139.446;2023-01-05T09:28:42;101211.39;;;8.99
48894;BMP280;34710;35.798;139.446;2023-01-05T09:31:14;101210.31;;;8.85
48894;BMP280;34710;35.798;139.446;2023-01-05T09:33:44;101214.39;;;8.95
48894;BMP280;34710;35.798;139.446;2023-01-05T09:36:16;101212.92;;;8.48
48894;BMP280;34710;35.798;139.446;2023-01-05T09:38:49;101218.80;;;8.69
48894;BMP280;34710;35.798;139.446;2023-01-05T09:41:22;101218.11;;;8.94
48894;BMP280;34710;35.798;139.446;2023-01-05T09:43:56;101225.00;;;8.68
48894;BMP280;34710;35.798;139.446;2023-01-05T09:46:31;101231.93;;;8.74
48894;BMP280;34710;35.798;139.446;2023-01-05T09:49:03;101236.18;;;8.38
48894;BMP280;34710;35.798;139.446;2023-01-05T09:51:34;101236.25;;;8.46
48894;BMP280;34710;35.798;139.446;2023-01-05T09:54:03;101231.41;;;8.48
48894;BMP280;34710;35.798;139.446;2023-01-05T09:56:35;101231.70;;;8.79
48894;BMP280;34710;35.798;139.446;2023-01-05T09:59:10;101222.98;;;8.73
48894;BMP280;34710;35.798;139.446;2023-01-05T10:01:42;101221.70;;;9.08
48894;BMP280;34710;35.798;139.446;2023-01-05T10:04:17;101221.96;;;9.06
48894;BMP280;34710;35.798;139.446;2023-01-05T10:06:50;101224.73;;;9.03
48894;BMP280;34710;35.798;139.446;2023-01-05T10:09:23;101225.85;;;8.97
48894;BMP280;34710;35.798;139.446;2023-01-05T10:11:56;101227.58;;;8.56
48894;BMP280;34710;35.798;139.446;2023-01-05T10:14:31;101226.42;;;8.92
48894;BMP280;34710;35.798;139.446;2023-01-05T10:17:04;101223.57;;;9.15
48894;BMP280;34710;35.798;139.446;2023-01-05T10:19:36;101218.79;;;9.25
48894;BMP280;34710;35.798;139.446;2023-01-05T10:22:17;101216.50;;;8.96
48894;BMP280;34710;35.798;139.446;2023-01-05T10:24:54;101212.68;;;8.84
48894;BMP280;34710;35.798;139.446;2023-01-05T10:27:28;101220.12;;;8.88
48894;BMP280;34710;35.798;139.446;2023-01-05T10:30:12;101230.81;;;8.95
48894;BMP280;34710;35.798;139.446;2023-01-05T10:32:54;101237.67;;;8.67
48894;BMP280;34710;35.798;139.446;2023-01-05T10:35:39;101237.00;;;8.59
48894;BMP280;34710;35.798;139.446;2023-01-05T10:38:24;101231.53;;;8.67
48894;BMP280;34710;35.798;139.446;2023-01-05T10:41:04;101235.72;;;8.56
48894;BMP280;34710;35.798;139.446;2023-01-05T10:43:47;101239.91;;;8.70
48894;BMP280;34710;35.798;139.446;2023-01-05T10:46:17;101246.02;;;8.62
48894;BMP280;34710;35.798;139.446;2023-01-05T10:48:47;101244.54;;;8.36
48894;BMP280;34710;35.798;139.446;2023-01-05T10:51:17;101248.37;;;8.58
48894;BMP280;34710;35.798;139.446;2023-01-05T10:53:47;101243.81;;;8.64
48894;BMP280;34710;35.798;139.446;2023-01-05T10:56:24;101238.56;;;8.73
48894;BMP280;34710;35.798;139.446;2023-01-05T10:59:08;101235.56;;;8.49
48894;BMP280;34710;35.798;139.446;2023-01-05T11:01:37;101245.25;;;8.69
48894;BMP280;34710;35.798;139.446;2023-01-05T11:04:15;101250.76;;;8.76
48894;BMP280;34710;35.798;139.446;2023-01-05T11:06:45;101245.53;;;8.86
48894;BMP280;34710;35.798;139.446;2023-01-05T11:09:18;101243.56;;;8.92
48894;BMP280;34710;35.798;139.446;2023-01-05T11:11:54;101240.01;;;8.92
48894;BMP280;34710;35.798;139.446;2023-01-05T11:14:24;101234.02;;;8.75
48894;BMP280;34710;35.798;139.446;2023-01-05T11:16:59;101234.75;;;8.96
48894;BMP280;34710;35.798;139.446;2023-01-05T11:19:31;101243.17;;;8.95
48894;BMP280;34710;35.798;139.446;2023-01-05T11:22:03;101258.46;;;8.88
48894;BMP280;34710;35.798;139.446;2023-01-05T11:24:33;101266.39;;;8.73
48894;BMP280;34710;35.798;139.446;2023-01-05T11:27:22;101271.33;;;8.63
48894;BMP280;34710;35.798;139.446;2023-01-05T11:30:18;101265.67;;;8.52
48894;BMP280;34710;35.798;139.446;2023-01-05T11:32:48;101269.23;;;8.48
48894;BMP280;34710;35.798;139.446;2023-01-05T11:35:20;101262.73;;;8.49
48894;BMP280;34710;35.798;139.446;2023-01-05T11:37:53;101265.08;;;8.51
48894;BMP280;34710;35.798;139.446;2023-01-05T11:40:25;101255.22;;;8.48
48894;BMP280;34710;35.798;139.446;2023-01-05T11:42:57;101250.55;;;8.28
48894;BMP280;34710;35.798;139.446;2023-01-05T11:45:32;101244.47;;;8.32
48894;BMP280;34710;35.798;139.446;2023-01-05T11:48:04;101236.68;;;8.36
48894;BMP280;34710;35.798;139.446;2023-01-05T11:50:42;101232.02;;;8.31
48894;BMP280;34710;35.798;139.446;2023-01-05T11:53:24;101230.02;;;8.20
48894;BMP280;34710;35.798;139.446;2023-01-05T11:56:01;101229.22;;;8.37
48894;BMP280;34710;35.798;139.446;2023-01-05T11:58:33;101229.16;;;8.56
48894;BMP280;34710;35.798;139.446;2023-01-05T12:01:26;101230.56;;;8.86
48894;BMP280;34710;35.798;139.446;2023-01-05T12:04:05;101227.30;;;8.73
48894;BMP280;34710;35.798;139.446;2023-01-05T12:07:25;101236.75;;;9.38
48894;BMP280;34710;35.798;139.446;2023-01-05T12:10:22;101234.54;;;8.09
48894;BMP280;34710;35.798;139.446;2023-01-05T12:12:59;101238.87;;;7.99
48894;BMP280;34710;35.798;139.446;2023-01-05T12:15:46;101247.36;;;7.97
48894;BMP280;34710;35.798;139.446;2023-01-05T12:18:31;101249.54;;;7.66
48894;BMP280;34710;35.798;139.446;2023-01-05T12:21:12;101260.07;;;7.92
48894;BMP280;34710;35.798;139.446;2023-01-05T12:23:59;101258.81;;;8.03
48894;BMP280;34710;35.798;139.446;2023-01-05T12:26:37;101252.54;;;7.98
48894;BMP280;34710;35.798;139.446;2023-01-05T12:29:38;101259.48;;;7.77
48894;BMP280;34710;35.798;139.446;2023-01-05T12:32:27;101258.87;;;7.99
48894;BMP280;34710;35.798;139.446;2023-01-05T12:35:19;101262.70;;;7.83
48894;BMP280;34710;35.798;139.446;2023-01-05T12:38:04;101272.55;;;7.94
48894;BMP280;34710;35.798;139.446;2023-01-05T12:40:48;101276.31;;;7.55
48894;BMP280;34710;35.798;139.446;2023-01-05T12:43:33;101277.31;;;7.58
48894;BMP280;34710;35.798;139.446;2023-01-05T12:46:17;101278.23;;;7.41
48894;BMP280;34710;35.798;139.446;2023-01-05T12:48:55;101287.00;;;7.39
48894;BMP280;34710;35.798;139.446;2023-01-05T12:51:30;101282.78;;;6.88
48894;BMP280;34710;35.798;139.446;2023-01-05T12:54:06;101269.84;;;6.86
48894;BMP280;34710;35.798;139.446;2023-01-05T12:56:39;101273.40;;;6.83
48894;BMP280;34710;35.798;139.446;2023-01-05T12:59:15;101266.04;;;6.80
48894;BMP280;34710;35.798;139.446;2023-01-05T13:01:51;101268.39;;;7.29
48894;BMP280;34710;35.798;139.446;2023-01-05T13:04:37;101279.57;;;7.29
48894;BMP280;34710;35.798;139.446;2023-01-05T13:07:11;101266.09;;;6.66
48894;BMP280;34710;35.798;139.446;2023-01-05T13:09:44;101270.09;;;7.12
48894;BMP280;34710;35.798;139.446;2023-01-05T13:12:15;101267.20;;;6.95
48894;BMP280;34710;35.798;139.446;2023-01-05T13:14:52;101267.43;;;6.41
48894;BMP280;34710;35.798;139.446;2023-01-05T13:17:32;101260.63;;;6.35
48894;BMP280;34710;35.798;139.446;2023-01-05T13:20:04;101250.61;;;6.21
48894;BMP280;34710;35.798;139.446;2023-01-05T13:22:41;101252.54;;;6.28
48894;BMP280;34710;35.798;139.446;2023-01-05T13:25:17;101262.34;;;6.33
48894;BMP280;34710;35.798;139.446;2023-01-05T13:27:47;101255.57;;;6.84
48894;BMP280;34710;35.798;139.446;2023-01-05T13:30:21;101251.68;;;6.81
48894;BMP280;34710;35.798;139.446;2023-01-05T13:33:07;101256.25;;;6.89
48894;BMP280;34710;35.798;139.446;2023-01-05T13:35:50;101258.88;;;6.65
48894;BMP280;34710;35.798;139.446;2023-01-05T13:39:05;101261.12;;;6.78
48894;BMP280;34710;35.798;139.446;2023-01-05T13:41:51;101262.98;;;6.67
48894;BMP280;34710;35.798;139.446;2023-01-05T13:44:41;101270.75;;;6.85
48894;BMP280;34710;35.798;139.446;2023-01-05T13:47:27;101268.82;;;7.02
48894;BMP280;34710;35.798;139.446;2023-01-05T13:50:20;101266.24;;;6.38
48894;BMP280;34710;35.798;139.446;2023-01-05T13:53:04;101269.31;;;6.45
48894;BMP280;34710;35.798;139.446;2023-01-05T13:55:45;101268.65;;;6.20
48894;BMP280;34710;35.798;139.446;2023-01-05T13:58:32;101270.26;;;5.81
48894;BMP280;34710;35.798;139.446;2023-01-05T14:01:06;101269.53;;;6.10
48894;BMP280;34710;35.798;139.446;2023-01-05T14:03:38;101271.90;;;5.91
48894;BMP280;34710;35.798;139.446;2023-01-05T14:06:16;101266.10;;;5.96
48894;BMP280;34710;35.798;139.446;2023-01-05T14:08:52;101259.50;;;6.11
48894;BMP280;34710;35.798;139.446;2023-01-05T14:11:23;101254.23;;;6.10